Hlavní strana
METAR-TAF:

METAR-TAF

Letiště :

Sindal, Dánsko

zeměpisná šířka: 57-30N, zeměpisná délka: 010-13E, výška: 28 m

Aktuální stav počasí

Zpráva byla vytvořena před 14 minutami, v 07:50 UTC
Východní vítr 10 kt
Teplota 14°C
Vlhkost vzduchu 82%
Tlak 1012 hPa
Viditelnost 10 km a více
Žádná oblačnost pod 1500 m, nevyskytují se cumulonimby.

METAR: EKSN 260750Z 10010KT CAVOK 14/11 Q1012

Čas: 10:04 (08:04 UTC)

Předpověď počasí

Zpráva byla vytvořena před 1 hodinou a 12 minutami, v 06:52 UTC
Předpověď platná od 26 v 07 UTC do 26 v 15 UTC
Východní vítr 10 kt
Viditelnost 10 km a více
Žádná oblačnost pod 1500 m, nevyskytují se cumulonimby.

TAF: EKSN 260652Z 2607/2615 10010KT CAVOK

Stav a předpovědi počasí z více než 4 000 letišť (zprávy METAR a TAF).

Červené a žluté tečky na mapě představují dostupné meteorologické stanice.

Když kurzor umístíte na tečku, zobrazí se název stanice.

Pak kliknutím zobrazíte stav a předpověď počasí.

Chcete-li změnit mapu, kliknutím na zelené tlačítko se znaménkem +mapu přiblížíte, kliknutím na zelené tlačítko se znaménkem – mapu oddálíte a kliknutím na zelené šipky přejdete na sousední mapy.


METAR-TAF: